Time;durP1;ratioP1;P1;durP2;ratioP2;P2;SDS_P1;SDS_P2;PMS_P1;PMS_P2;Temp;Humidity;BMP_temperature;BMP_pressure;BME280_temperature;BME280_humidity;BME280_pressure;Samples;Min_cycle;Max_cycle;Signal;HPM_P1;HPM_P2
2022/03/24 00:02:21;;;;;;;26.50;22.40;;;16.90;73.50;;;;;;5294102;28;20067;-28
2022/03/24 00:04:53;;;;;;;27.20;21.05;;;16.90;73.50;;;;;;5293946;28;20044;-29
2022/03/24 00:07:24;;;;;;;25.48;21.42;;;16.90;73.80;;;;;;5293653;28;20113;-37
2022/03/24 00:09:55;;;;;;;24.50;20.92;;;16.90;74.10;;;;;;5293979;28;20487;-29
2022/03/24 00:12:27;;;;;;;25.73;20.90;;;16.90;74.20;;;;;;5293865;28;20063;-30
2022/03/24 00:14:58;;;;;;;26.30;22.33;;;16.90;74.40;;;;;;5294005;28;20064;-28
2022/03/24 00:17:30;;;;;;;27.10;22.25;;;16.80;74.50;;;;;;5293569;28;20090;-32
2022/03/24 00:20:02;;;;;;;25.80;22.30;;;16.90;74.80;;;;;;5293567;28;20051;-33
2022/03/24 00:22:33;;;;;;;23.35;19.80;;;16.80;75.10;;;;;;5293329;28;20047;-29
2022/03/24 00:25:05;;;;;;;24.75;22.05;;;16.80;75.20;;;;;;5293365;28;20055;-29
2022/03/24 00:27:36;;;;;;;26.40;22.37;;;16.80;75.30;;;;;;5293456;28;20441;-30
2022/03/24 00:30:08;;;;;;;23.63;20.77;;;16.80;75.50;;;;;;5293299;28;20075;-34
2022/03/24 00:32:39;;;;;;;27.23;22.47;;;16.80;75.50;;;;;;5293456;28;20043;-34
2022/03/24 00:35:10;;;;;;;25.23;21.20;;;16.80;75.70;;;;;;5293095;28;20044;-34
2022/03/24 00:37:41;;;;;;;23.80;21.20;;;16.80;75.80;;;;;;5293316;28;20071;-31
2022/03/24 00:40:16;;;;;;;26.33;21.83;;;16.80;76.10;;;;;;5293189;28;20040;-33
2022/03/24 00:42:47;;;;;;;26.33;21.77;;;16.80;76.30;;;;;;5293199;28;20400;-32
2022/03/24 00:45:19;;;;;;;25.02;21.88;;;16.80;76.40;;;;;;5275047;28;20050;-34
2022/03/24 00:47:50;;;;;;;27.70;22.77;;;16.70;76.60;;;;;;5275771;28;20055;-30
2022/03/24 00:50:21;;;;;;;27.42;22.58;;;16.70;76.70;;;;;;5293129;28;20534;-30
2022/03/24 00:52:52;;;;;;;25.67;22.53;;;16.70;77.00;;;;;;5293149;28;20396;-32
2022/03/24 00:55:23;;;;;;;26.77;22.45;;;16.70;77.20;;;;;;5292995;28;20389;-32
2022/03/24 00:57:54;;;;;;;27.33;23.23;;;16.70;77.40;;;;;;5293357;28;20055;-27
2022/03/24 01:00:27;;;;;;;24.63;21.20;;;16.70;77.60;;;;;;5274374;28;20417;-38
2022/03/24 01:02:58;;;;;;;27.35;22.60;;;16.70;78.20;;;;;;5292641;28;20040;-33
2022/03/24 01:05:29;;;;;;;28.13;22.80;;;16.70;78.50;;;;;;5293214;28;20124;-29
2022/03/24 01:08:00;;;;;;;32.23;25.90;;;16.70;78.60;;;;;;5292409;28;20048;-32
2022/03/24 01:10:31;;;;;;;30.48;25.38;;;16.70;78.80;;;;;;5292448;28;20044;-34
2022/03/24 01:13:02;;;;;;;31.80;26.43;;;16.60;78.90;;;;;;5292413;28;20413;-32
2022/03/24 01:15:34;;;;;;;29.77;25.43;;;16.70;79.00;;;;;;5274246;28;20126;-30
2022/03/24 01:18:05;;;;;;;32.20;24.53;;;16.60;79.00;;;;;;5292427;28;20043;-29
2022/03/24 01:20:37;;;;;;;26.15;23.30;;;16.60;78.90;;;;;;5292093;28;20051;-36
2022/03/24 01:23:08;;;;;;;29.63;26.43;;;16.60;79.00;;;;;;5274466;28;20051;-32
2022/03/24 01:25:42;;;;;;;33.33;26.53;;;16.60;79.60;;;;;;5292686;28;20063;-35
2022/03/24 01:28:14;;;;;;;33.50;26.33;;;16.60;79.10;;;;;;5274462;28;20181;-35
2022/03/24 01:30:46;;;;;;;31.23;27.03;;;16.60;79.20;;;;;;5292070;28;20054;-27
2022/03/24 01:33:17;;;;;;;33.20;28.83;;;16.60;79.20;;;;;;5292731;28;20044;-30
2022/03/24 01:35:50;;;;;;;33.30;27.77;;;16.60;79.60;;;;;;5292278;28;20088;-32
2022/03/24 01:38:23;;;;;;;39.95;30.10;;;16.60;79.60;;;;;;5274822;28;20047;-34
2022/03/24 01:40:54;;;;;;;40.97;32.73;;;16.50;79.80;;;;;;5291989;28;20389;-29
2022/03/24 01:43:25;;;;;;;40.73;31.77;;;16.50;79.80;;;;;;5292024;28;20051;-34
2022/03/24 01:45:56;;;;;;;35.97;29.90;;;16.50;80.00;;;;;;5291774;28;20043;-27
2022/03/24 01:48:27;;;;;;;35.33;30.17;;;16.50;80.00;;;;;;5256702;28;20374;-29
2022/03/24 01:50:58;;;;;;;32.47;27.80;;;16.50;80.00;;;;;;5273781;28;20062;-37
2022/03/24 01:53:30;;;;;;;33.97;27.90;;;16.50;80.30;;;;;;5291553;28;20048;-31
2022/03/24 01:56:01;;;;;;;35.47;29.47;;;16.50;80.50;;;;;;5291809;28;20136;-31
2022/03/24 01:58:33;;;;;;;37.27;29.67;;;16.50;80.50;;;;;;5256799;28;20046;-28
2022/03/24 02:01:37;;;;;;;35.43;30.23;;;16.50;80.40;;;;;;5273226;28;20138;-32
2022/03/24 02:04:08;;;;;;;36.83;30.13;;;16.50;80.20;;;;;;5185347;28;20486;-35
2022/03/24 02:06:39;;;;;;;34.77;28.20;;;16.50;80.60;;;;;;5184863;28;20077;-33
2022/03/24 02:09:11;;;;;;;31.57;25.90;;;16.50;80.60;;;;;;5185344;28;20073;-29
2022/03/24 02:11:42;;;;;;;30.73;25.40;;;16.40;80.80;;;;;;5185099;28;20069;-31
2022/03/24 02:14:14;;;;;;;29.37;25.57;;;16.50;81.30;;;;;;5185371;28;20057;-30
2022/03/24 02:16:47;;;;;;;32.23;27.03;;;16.50;81.50;;;;;;5185225;28;20072;-30
2022/03/24 02:19:23;;;;;;;32.90;25.43;;;16.50;81.70;;;;;;5185228;28;20065;-31
2022/03/24 02:21:56;;;;;;;28.20;24.83;;;16.40;81.90;;;;;;5185171;28;20058;-33
2022/03/24 02:24:26;;;;;;;27.30;24.40;;;16.50;82.20;;;;;;5185292;28;20062;-28
2022/03/24 02:26:59;;;;;;;30.57;27.27;;;16.40;82.20;;;;;;5185474;28;20209;-35
2022/03/24 02:29:30;;;;;;;30.57;26.90;;;16.40;82.20;;;;;;5168704;28;20065;-31
2022/03/24 02:32:01;;;;;;;30.83;25.57;;;16.40;82.20;;;;;;5185014;28;20050;-32
2022/03/24 02:34:37;;;;;;;27.43;22.87;;;16.40;82.20;;;;;;5185204;28;20480;-30
2022/03/24 02:37:11;;;;;;;27.63;23.00;;;16.40;82.00;;;;;;5169722;28;20049;-38
2022/03/24 02:39:46;;;;;;;27.63;23.70;;;16.40;81.90;;;;;;5239969;28;20054;-31
2022/03/24 02:42:19;;;;;;;27.03;23.87;;;16.40;81.70;;;;;;5291127;28;20052;-30
2022/03/24 02:44:53;;;;;;;;;;;16.40;82.00;;;;;;5291196;28;20133;-30
2022/03/24 02:47:25;;;;;;;26.63;22.27;;;16.40;81.80;;;;;;5290862;28;20257;-32
2022/03/24 02:49:57;;;;;;;28.53;23.70;;;16.40;82.20;;;;;;5291181;28;20465;-33
2022/03/24 02:52:28;;;;;;;28.37;24.17;;;16.40;82.20;;;;;;5290609;28;20078;-35
2022/03/24 02:54:59;;;;;;;29.63;24.50;;;16.40;82.20;;;;;;5272717;28;20050;-34
2022/03/24 02:57:30;;;;;;;26.90;24.00;;;16.40;82.50;;;;;;5272887;28;20051;-37
2022/03/24 03:00:03;;;;;;;28.43;24.33;;;16.40;82.50;;;;;;5272219;28;20047;-35
2022/03/24 03:02:34;;;;;;;31.88;27.20;;;16.30;82.40;;;;;;5290988;28;20043;-29
2022/03/24 03:05:05;;;;;;;32.00;26.77;;;16.30;82.50;;;;;;5290375;28;20071;-29
2022/03/24 03:07:37;;;;;;;32.40;26.07;;;16.30;82.60;;;;;;5290530;28;20054;-28
2022/03/24 03:10:08;;;;;;;33.50;25.33;;;16.40;82.40;;;;;;5290953;28;20473;-30
2022/03/24 03:12:39;;;;;;;34.20;25.87;;;16.30;82.50;;;;;;5225455;28;20049;-30
2022/03/24 03:15:10;;;;;;;31.93;26.43;;;16.30;82.70;;;;;;5209263;28;20069;-32
2022/03/24 03:17:41;;;;;;;31.00;25.57;;;16.30;82.70;;;;;;5229241;28;20094;-36
2022/03/24 03:20:13;;;;;;;32.47;25.30;;;16.30;82.60;;;;;;5229709;28;20049;-32
2022/03/24 03:22:44;;;;;;;29.48;24.02;;;16.30;82.60;;;;;;5229828;28;20174;-29
2022/03/24 03:25:15;;;;;;;30.87;25.87;;;16.30;82.80;;;;;;5229637;28;20072;-31
2022/03/24 03:27:46;;;;;;;36.80;27.90;;;16.30;83.00;;;;;;5229615;28;20049;-30
2022/03/24 03:30:17;;;;;;;34.17;27.83;;;16.30;83.10;;;;;;5250964;28;20047;-28
2022/03/24 03:32:48;;;;;;;31.93;25.57;;;16.30;83.30;;;;;;5276451;28;20051;-32
2022/03/24 03:35:20;;;;;;;31.50;26.80;;;16.30;83.30;;;;;;5294497;28;20048;-29
2022/03/24 03:37:51;;;;;;;28.73;24.37;;;16.30;83.40;;;;;;5294420;28;20103;-31
2022/03/24 03:40:22;;;;;;;30.00;24.07;;;16.30;83.70;;;;;;5294515;28;20047;-33
2022/03/24 03:42:53;;;;;;;32.77;26.50;;;16.30;83.90;;;;;;5259842;28;20499;-32
2022/03/24 03:45:24;;;;;;;31.77;27.40;;;16.30;83.90;;;;;;5294000;28;20040;-37
2022/03/24 03:47:55;;;;;;;34.23;27.00;;;16.30;84.60;;;;;;5294054;28;20044;-28
2022/03/24 03:50:26;;;;;;;30.87;26.60;;;16.30;84.50;;;;;;5294455;28;20097;-34
2022/03/24 03:52:57;;;;;;;31.63;27.27;;;16.30;84.20;;;;;;5293960;28;20058;-29
2022/03/24 03:55:28;;;;;;;33.40;26.57;;;16.20;84.00;;;;;;5293979;28;20135;-30
2022/03/24 03:57:59;;;;;;;28.63;24.13;;;16.20;83.70;;;;;;5276100;28;20382;-29
2022/03/24 04:03:20;;;;;;;28.47;23.50;;;16.20;83.60;;;;;;5278925;28;20051;-31
2022/03/24 04:05:55;;;;;;;27.17;23.43;;;16.30;83.60;;;;;;5294005;28;20058;-28
2022/03/24 04:08:29;;;;;;;26.80;22.13;;;16.30;83.60;;;;;;5293667;28;20051;-32
2022/03/24 04:11:01;;;;;;;26.53;22.13;;;16.20;83.60;;;;;;5293602;28;20096;-29
2022/03/24 04:13:32;;;;;;;28.20;24.30;;;16.20;83.60;;;;;;5259188;28;20051;-36
2022/03/24 04:16:03;;;;;;;27.33;22.60;;;16.30;83.90;;;;;;5293684;28;20051;-30
2022/03/24 04:18:34;;;;;;;26.40;23.50;;;16.30;83.90;;;;;;5276010;28;20043;-32
2022/03/24 04:21:05;;;;;;;28.17;24.57;;;16.30;83.90;;;;;;5293436;28;20508;-33
2022/03/24 04:23:37;;;;;;;26.20;23.40;;;16.20;84.30;;;;;;5293609;28;20168;-28
2022/03/24 04:26:08;;;;;;;27.00;23.40;;;16.20;84.30;;;;;;5294172;28;20473;-32
2022/03/24 04:28:40;;;;;;;27.03;24.00;;;16.30;84.20;;;;;;5292772;28;20043;-34
2022/03/24 04:31:11;;;;;;;29.73;24.03;;;16.20;84.30;;;;;;5293384;28;20059;-35
2022/03/24 04:33:43;;;;;;;29.07;23.63;;;16.20;84.20;;;;;;5293260;28;20043;-31
2022/03/24 04:36:14;;;;;;;28.50;23.30;;;16.20;84.20;;;;;;5293834;28;20443;-29
2022/03/24 04:39:03;;;;;;;26.37;22.70;;;16.20;84.70;;;;;;5275333;28;20115;-36
2022/03/24 04:41:34;;;;;;;27.87;22.60;;;16.20;84.50;;;;;;5293457;28;20053;-32
2022/03/24 04:44:05;;;;;;;26.93;22.73;;;16.20;84.70;;;;;;5293069;28;20512;-29
2022/03/24 04:46:36;;;;;;;26.23;23.23;;;16.20;84.80;;;;;;5293149;28;20044;-29
2022/03/24 04:49:08;;;;;;;31.27;25.60;;;16.20;84.90;;;;;;5274613;28;20533;-32
2022/03/24 04:51:39;;;;;;;29.47;26.27;;;16.20;84.40;;;;;;5292461;28;20461;-36
2022/03/24 04:54:10;;;;;;;31.63;26.13;;;16.20;91.20;;;;;;5292943;28;20040;-33
2022/03/24 04:56:41;;;;;;;29.83;25.10;;;16.30;91.20;;;;;;5257870;28;20051;-29
2022/03/24 04:59:12;;;;;;;28.83;24.23;;;16.20;87.60;;;;;;5292428;28;20561;-29
2022/03/24 05:01:43;;;;;;;29.63;25.17;;;16.40;83.30;;;;;;5292610;28;20043;-33
2022/03/24 05:04:15;;;;;;;29.60;24.97;;;16.40;75.50;;;;;;5292220;28;20074;-29
2022/03/24 05:06:47;;;;;;;29.17;25.50;;;16.50;75.50;;;;;;5292205;28;20040;-36
2022/03/24 05:09:18;;;;;;;28.73;23.75;;;16.60;72.10;;;;;;5292067;28;20074;-31
2022/03/24 05:11:49;;;;;;;28.43;24.83;;;16.70;69.80;;;;;;5292360;28;20067;-29
2022/03/24 05:14:21;;;;;;;33.80;29.70;;;16.70;67.60;;;;;;5292314;28;20059;-35
2022/03/24 05:16:52;;;;;;;33.13;29.27;;;16.70;65.60;;;;;;5256699;28;20044;-29
2022/03/24 05:19:23;;;;;;;30.67;27.43;;;16.30;65.80;;;;;;5274708;28;20044;-30
2022/03/24 05:21:55;;;;;;;30.60;26.97;;;15.80;66.50;;;;;;5291978;28;20043;-27
2022/03/24 05:24:26;;;;;;;33.87;28.53;;;15.50;67.30;;;;;;5291074;28;20493;-32
2022/03/24 05:26:57;;;;;;;34.70;30.60;;;15.20;67.60;;;;;;5292202;28;20085;-31
2022/03/24 05:29:28;;;;;;;38.40;32.90;;;15.00;67.90;;;;;;5292247;28;20397;-31
2022/03/24 05:31:59;;;;;;;37.40;31.53;;;14.80;68.10;;;;;;5290866;28;20044;-28
2022/03/24 05:34:30;;;;;;;39.30;31.33;;;14.50;68.50;;;;;;5292068;28;20044;-28
2022/03/24 05:37:01;;;;;;;36.83;32.47;;;14.30;68.80;;;;;;5274086;28;20040;-27
2022/03/24 05:39:33;;;;;;;40.20;32.70;;;14.20;69.10;;;;;;5291117;28;20449;-27
2022/03/24 05:42:04;;;;;;;37.20;32.93;;;14.10;69.50;;;;;;5291563;28;20063;-31
2022/03/24 05:44:35;;;;;;;37.40;32.33;;;14.00;69.80;;;;;;5238343;28;20484;-37
2022/03/24 05:47:09;;;;;;;33.80;29.97;;;14.00;70.10;;;;;;5274027;28;20043;-27
2022/03/24 05:50:24;;;;;;;34.67;29.47;;;13.90;70.40;;;;;;5274869;28;20039;-32
2022/03/24 05:53:19;;;;;;;;;;;13.90;70.90;;;;;;5186289;28;20066;-29
2022/03/24 05:56:02;;;;;;;;;;;13.80;71.00;;;;;;5186625;28;19983;-30
2022/03/24 05:58:33;;;;;;;;;;;13.70;71.60;;;;;;5166865;28;19925;-27
2022/03/24 06:01:05;;;;;;;31.70;27.23;;;13.70;71.70;;;;;;5166717;28;19980;-34
2022/03/24 06:03:37;;;;;;;31.58;28.00;;;13.70;72.00;;;;;;5183284;28;20144;-27
2022/03/24 06:06:08;;;;;;;30.13;26.67;;;13.70;72.40;;;;;;5183176;28;20046;-29
2022/03/24 06:08:51;;;;;;;34.30;29.67;;;13.60;72.60;;;;;;5183289;28;20451;-31
2022/03/24 06:11:23;;;;;;;34.30;30.17;;;13.60;73.00;;;;;;5183011;28;20041;-32
2022/03/24 06:13:54;;;;;;;36.00;31.23;;;13.60;73.10;;;;;;5182867;28;20054;-31
2022/03/24 06:16:27;;;;;;;34.77;30.50;;;13.70;73.40;;;;;;5182828;28;20519;-29
2022/03/24 06:18:59;;;;;;;35.20;30.73;;;13.70;73.70;;;;;;5182991;28;20045;-33
2022/03/24 06:21:30;;;;;;;33.88;29.17;;;13.80;73.80;;;;;;5166089;28;20077;-29
2022/03/24 06:24:02;;;;;;;33.90;29.23;;;13.80;73.90;;;;;;5182823;28;20123;-32
2022/03/24 06:26:35;;;;;;;34.37;30.67;;;13.90;74.00;;;;;;5182532;28;20053;-30
2022/03/24 06:29:10;;;;;;;33.25;29.25;;;14.00;74.10;;;;;;5213892;28;20130;-36
2022/03/24 06:31:41;;;;;;;33.20;27.70;;;14.10;74.10;;;;;;5285662;28;20032;-32
2022/03/24 06:34:12;;;;;;;28.60;24.23;;;14.30;76.70;;;;;;5288780;28;20048;-32
2022/03/24 06:36:44;;;;;;;30.70;26.73;;;14.60;77.20;;;;;;5285382;28;20481;-28
2022/03/24 06:39:15;;;;;;;33.77;28.23;;;14.90;77.60;;;;;;5277442;28;20044;-31
2022/03/24 06:41:46;;;;;;;32.63;28.03;;;15.20;78.20;;;;;;5288532;28;20044;-26
2022/03/24 06:44:18;;;;;;;33.57;29.10;;;15.40;79.10;;;;;;5289049;28;20039;-28
2022/03/24 06:46:57;;;;;;;30.13;26.50;;;15.60;79.10;;;;;;5288421;28;20055;-30
2022/03/24 06:49:51;;;;;;;31.57;25.77;;;15.80;78.90;;;;;;5288115;28;20405;-29
2022/03/24 06:52:37;;;;;;;28.07;25.07;;;15.90;79.10;;;;;;5288293;28;20039;-29
2022/03/24 06:55:08;;;;;;;28.93;24.80;;;16.10;79.80;;;;;;5288365;28;20048;-36
2022/03/24 06:57:47;;;;;;;29.27;25.30;;;16.10;79.60;;;;;;5284801;28;20086;-34
2022/03/24 07:00:23;;;;;;;30.13;24.80;;;16.20;80.00;;;;;;5256324;28;20531;-29
2022/03/24 07:02:56;;;;;;;30.25;24.92;;;16.20;80.40;;;;;;5267224;28;20416;-31
2022/03/24 07:05:27;;;;;;;29.67;26.47;;;16.30;81.20;;;;;;5267466;28;20097;-30
2022/03/24 07:07:58;;;;;;;28.55;25.35;;;16.40;81.70;;;;;;5267028;28;20044;-31
2022/03/24 07:10:29;;;;;;;29.73;26.20;;;16.40;81.40;;;;;;5267420;28;20105;-30
2022/03/24 07:13:00;;;;;;;30.05;25.05;;;16.40;82.30;;;;;;5267203;28;20048;-31
2022/03/24 07:15:31;;;;;;;27.25;24.30;;;16.50;82.40;;;;;;5267317;28;20056;-29
2022/03/24 07:18:02;;;;;;;27.87;24.30;;;16.50;82.80;;;;;;5266864;28;20051;-27
2022/03/24 07:20:34;;;;;;;28.27;25.17;;;16.50;83.10;;;;;;5266826;28;20099;-30
2022/03/24 07:23:06;;;;;;;27.27;24.37;;;16.60;83.00;;;;;;5265893;28;20051;-30
2022/03/24 07:25:38;;;;;;;27.17;23.87;;;16.60;81.90;;;;;;5267343;28;20128;-32
2022/03/24 07:28:11;;;;;;;27.48;24.50;;;16.60;82.50;;;;;;5267035;28;20530;-30
2022/03/24 07:30:43;;;;;;;25.65;21.83;;;16.60;82.40;;;;;;5267242;28;20044;-29
2022/03/24 07:33:14;;;;;;;23.60;21.15;;;16.60;82.00;;;;;;5265549;28;20056;-31
2022/03/24 07:35:45;;;;;;;23.67;21.17;;;16.60;82.90;;;;;;5243478;28;20040;-30
2022/03/24 07:38:17;;;;;;;22.53;20.17;;;16.60;82.20;;;;;;5243507;28;20049;-33
2022/03/24 07:40:51;;;;;;;22.95;20.45;;;16.70;83.40;;;;;;5243505;28;20044;-28
2022/03/24 07:43:25;;;;;;;23.27;20.63;;;16.70;86.00;;;;;;5243442;28;20052;-29
2022/03/24 07:45:56;;;;;;;23.17;20.77;;;16.70;84.10;;;;;;5226930;28;20375;-29
2022/03/24 07:48:33;;;;;;;22.48;20.08;;;16.70;83.00;;;;;;5243391;28;20057;-30
2022/03/24 07:51:05;;;;;;;22.67;20.27;;;16.70;83.00;;;;;;5243611;28;20540;-30
2022/03/24 07:53:54;;;;;;;21.57;19.23;;;16.70;83.10;;;;;;5243251;28;20045;-29
2022/03/24 07:56:25;;;;;;;21.60;18.73;;;16.70;83.10;;;;;;5226789;28;20064;-29
2022/03/24 07:58:57;;;;;;;20.70;18.27;;;16.70;83.10;;;;;;5244402;28;20068;-31
2022/03/24 08:01:29;;;;;;;20.60;18.42;;;16.70;85.30;;;;;;5245664;28;20509;-29
2022/03/24 08:04:02;;;;;;;21.00;18.63;;;16.70;79.00;;;;;;5231507;28;20150;-31
2022/03/24 08:06:35;;;;;;;20.38;18.15;;;16.70;78.50;;;;;;5249489;28;20410;-32
2022/03/24 08:09:06;;;;;;;19.40;17.40;;;16.70;77.70;;;;;;5249140;28;20052;-29
2022/03/24 08:11:37;;;;;;;20.23;18.03;;;16.70;78.20;;;;;;5248961;28;20452;-34
2022/03/24 08:14:09;;;;;;;17.93;15.50;;;16.70;78.10;;;;;;5250507;28;20049;-29
2022/03/24 08:16:40;;;;;;;17.70;15.50;;;16.70;78.20;;;;;;5250337;28;20048;-31
2022/03/24 08:19:14;;;;;;;17.08;15.25;;;16.70;79.70;;;;;;5250735;28;20060;-30
2022/03/24 08:21:46;;;;;;;15.63;14.00;;;16.70;78.90;;;;;;5251367;28;20125;-29
2022/03/24 08:24:22;;;;;;;17.70;13.68;;;16.70;78.60;;;;;;5251620;28;20040;-31
2022/03/24 08:26:56;;;;;;;14.20;12.70;;;16.70;79.20;;;;;;5250293;28;20086;-33
2022/03/24 08:29:27;;;;;;;13.63;12.23;;;16.70;78.50;;;;;;5251585;28;20053;-35
2022/03/24 08:31:58;;;;;;;13.80;12.30;;;16.70;78.30;;;;;;5251677;28;20041;-31
2022/03/24 08:34:29;;;;;;;14.02;12.35;;;16.70;79.50;;;;;;5251321;28;20045;-29
2022/03/24 08:37:00;;;;;;;13.20;11.80;;;16.70;78.30;;;;;;5251267;28;20401;-30
2022/03/24 08:39:31;;;;;;;15.47;11.80;;;16.70;77.50;;;;;;5232707;28;20049;-31
2022/03/24 08:42:03;;;;;;;14.52;12.43;;;16.70;77.80;;;;;;5251369;28;20046;-29
2022/03/24 08:44:34;;;;;;;13.13;11.73;;;16.70;77.20;;;;;;5250859;28;20072;-33
2022/03/24 08:47:06;;;;;;;15.30;13.53;;;16.70;77.70;;;;;;5249782;28;20045;-33
2022/03/24 08:49:37;;;;;;;15.00;13.40;;;16.70;77.80;;;;;;5250258;28;20041;-30
2022/03/24 08:52:12;;;;;;;15.75;14.05;;;16.70;77.30;;;;;;5249890;28;20131;-30
2022/03/24 08:54:43;;;;;;;;;;;16.70;77.80;;;;;;5251708;28;20040;-30
2022/03/24 08:57:14;;;;;;;16.93;14.50;;;16.70;78.30;;;;;;5250484;28;19927;-30
2022/03/24 08:59:45;;;;;;;15.95;14.35;;;16.70;79.40;;;;;;5259386;28;20056;-30
2022/03/24 09:02:16;;;;;;;14.90;12.93;;;16.70;76.90;;;;;;5271680;28;20477;-33
2022/03/24 09:04:48;;;;;;;13.70;11.70;;;16.70;77.30;;;;;;5271631;28;20051;-35
2022/03/24 09:07:19;;;;;;;13.25;10.80;;;16.70;75.80;;;;;;5271808;28;20040;-34
2022/03/24 09:09:50;;;;;;;14.00;11.77;;;16.80;83.60;;;;;;5271626;28;20055;-33
2022/03/24 09:12:23;;;;;;;13.68;11.10;;;16.80;84.80;;;;;;5271083;28;20066;-28
2022/03/24 09:14:54;;;;;;;14.35;12.43;;;16.80;84.80;;;;;;5253513;28;20422;-32
2022/03/24 09:17:26;;;;;;;14.65;13.00;;;16.90;85.20;;;;;;5271538;28;20388;-29
2022/03/24 09:19:56;;;;;;;14.43;11.90;;;16.90;85.60;;;;;;5271208;28;20427;-28
2022/03/24 09:22:28;;;;;;;13.68;12.25;;;17.00;85.10;;;;;;5271487;28;20048;-29
2022/03/24 09:24:58;;;;;;;13.73;11.73;;;17.00;85.60;;;;;;5271433;28;20047;-30
2022/03/24 09:27:30;;;;;;;12.90;11.48;;;17.00;84.70;;;;;;5255710;28;20048;-29
2022/03/24 09:30:02;;;;;;;13.32;11.80;;;17.10;86.10;;;;;;5289343;28;20481;-29
2022/03/24 09:32:34;;;;;;;12.20;9.90;;;17.10;84.50;;;;;;5244027;28;20056;-32
2022/03/24 09:35:06;;;;;;;10.85;9.32;;;17.00;82.50;;;;;;5289752;28;20588;-28
2022/03/24 09:37:53;;;;;;;9.90;8.50;;;17.10;82.40;;;;;;5289703;28;20493;-35
2022/03/24 09:40:33;;;;;;;9.30;7.63;;;17.10;83.60;;;;;;5289454;28;20046;-28
2022/03/24 09:43:04;;;;;;;8.80;7.22;;;17.10;83.30;;;;;;5271413;28;20071;-29
2022/03/24 09:46:10;;;;;;;7.70;6.45;;;17.10;81.90;;;;;;5289741;28;20047;-34
2022/03/24 09:48:48;;;;;;;7.43;6.10;;;17.10;80.40;;;;;;5289640;28;20122;-29
2022/03/24 09:51:23;;;;;;;6.05;5.38;;;17.10;80.60;;;;;;5271232;28;20071;-33
2022/03/24 09:53:55;;;;;;;7.63;5.43;;;17.00;79.20;;;;;;5224281;28;20073;-31
2022/03/24 09:56:27;;;;;;;6.53;5.32;;;17.10;78.00;;;;;;5207584;28;20545;-29
2022/03/24 09:59:07;;;;;;;7.40;5.50;;;17.00;78.70;;;;;;5206897;28;20170;-30
2022/03/24 10:02:11;;;;;;;6.50;4.95;;;17.00;78.70;;;;;;5224175;28;20465;-31
2022/03/24 10:04:53;;;;;;;6.78;5.10;;;17.00;78.20;;;;;;5223203;28;20499;-35
2022/03/24 10:07:25;;;;;;;6.43;4.38;;;17.00;77.90;;;;;;5223791;28;20052;-30
2022/03/24 10:09:59;;;;;;;6.55;5.05;;;17.00;79.40;;;;;;5207491;28;20053;-28
2022/03/24 10:12:37;;;;;;;5.43;4.57;;;17.10;77.80;;;;;;5208145;28;20052;-29
2022/03/24 10:15:10;;;;;;;5.97;4.32;;;17.00;78.10;;;;;;5223803;28;20142;-31
2022/03/24 10:17:48;;;;;;;5.07;3.75;;;17.00;80.80;;;;;;5207094;28;20255;-30
2022/03/24 10:20:19;;;;;;;5.55;4.43;;;17.00;82.80;;;;;;5208324;28;20293;-34
2022/03/24 10:22:57;;;;;;;6.43;4.38;;;17.00;82.40;;;;;;5223819;28;20069;-28
2022/03/24 10:25:33;;;;;;;6.32;4.13;;;17.00;82.70;;;;;;5206939;28;20490;-29
2022/03/24 10:28:11;;;;;;;5.00;3.63;;;17.00;86.50;;;;;;5222998;28;20049;-31
2022/03/24 10:30:46;;;;;;;5.18;3.88;;;17.00;84.40;;;;;;5211189;28;20073;-26
2022/03/24 10:33:40;;;;;;;4.30;3.33;;;16.90;84.10;;;;;;5222946;28;20049;-29
2022/03/24 10:36:23;;;;;;;4.57;3.30;;;16.80;82.60;;;;;;5206844;28;20049;-29
2022/03/24 10:39:09;;;;;;;4.80;3.10;;;16.80;82.10;;;;;;5264145;28;20051;-31
2022/03/24 10:41:52;;;;;;;4.35;2.90;;;16.80;84.70;;;;;;5265349;28;20165;-33
2022/03/24 10:44:30;;;;;;;4.88;3.45;;;16.70;79.20;;;;;;5267479;28;20121;-29
2022/03/24 10:47:06;;;;;;;5.40;3.42;;;16.70;78.70;;;;;;5253339;28;20071;-32
2022/03/24 10:49:38;;;;;;;4.72;3.22;;;16.80;80.40;;;;;;5266089;28;20151;-30
2022/03/24 10:52:44;;;;;;;5.95;3.20;;;16.80;79.80;;;;;;5267386;28;20882;-33
2022/03/24 10:56:18;;;;;;;5.53;3.60;;;16.80;85.10;;;;;;5223191;28;20057;-30
2022/03/24 10:59:10;;;;;;;8.25;5.55;;;16.80;87.50;;;;;;5121187;29;20059;-26
2022/03/24 11:01:49;;;;;;;6.15;3.72;;;17.00;87.20;;;;;;5121796;29;20062;-28
2022/03/24 11:04:20;;;;;;;4.88;2.83;;;17.00;91.00;;;;;;5121916;29;20062;-28
2022/03/24 11:06:52;;;;;;;5.78;3.20;;;17.00;88.40;;;;;;5105874;29;20122;-28
2022/03/24 11:09:28;;;;;;;4.22;2.92;;;17.00;85.50;;;;;;5105944;29;20440;-25
2022/03/24 11:12:25;;;;;;;6.15;3.10;;;17.10;85.90;;;;;;5106026;29;20058;-31
2022/03/24 11:14:59;;;;;;;4.25;2.90;;;17.20;83.80;;;;;;5122537;29;20055;-27
2022/03/24 11:17:36;;;;;;;4.97;3.17;;;17.30;90.00;;;;;;5124090;29;20142;-27
2022/03/24 11:20:19;;;;;;;4.45;2.88;;;17.30;86.50;;;;;;5108449;29;20083;-28
2022/03/24 11:23:09;;;;;;;4.95;3.13;;;17.30;82.70;;;;;;5108474;29;20059;-28
2022/03/24 11:25:40;;;;;;;4.95;2.95;;;17.30;84.40;;;;;;5108260;29;20062;-25
2022/03/24 11:28:14;;;;;;;5.35;3.42;;;17.30;90.00;;;;;;5108297;29;20548;-27
2022/03/24 11:30:46;;;;;;;4.68;3.55;;;17.30;86.10;;;;;;5108375;29;20061;-28
2022/03/24 11:33:22;;;;;;;5.72;3.60;;;17.30;87.00;;;;;;5108146;29;20047;-30
2022/03/24 11:35:54;;;;;;;7.05;4.50;;;17.20;85.80;;;;;;5177445;28;20053;-27
2022/03/24 11:38:26;;;;;;;5.40;4.50;;;17.10;62.80;;;;;;5191467;28;20064;-29
2022/03/24 11:41:04;;;;;;;6.30;4.80;;;16.30;62.50;;;;;;5208588;28;20083;-26
2022/03/24 11:43:36;;;;;;;6.70;5.07;;;15.70;63.50;;;;;;5176979;28;20399;-29
2022/03/24 11:46:11;;;;;;;6.03;4.73;;;15.20;63.30;;;;;;5159842;28;20071;-27
2022/03/24 11:48:44;;;;;;;6.47;5.10;;;14.90;63.40;;;;;;5192934;28;20041;-31
2022/03/24 11:51:20;;;;;;;6.17;4.90;;;14.70;63.70;;;;;;5208479;28;20060;-27
2022/03/24 11:54:02;;;;;;;8.43;7.20;;;14.60;64.10;;;;;;5209113;28;20490;-27
2022/03/24 11:56:34;;;;;;;5.70;4.47;;;14.50;64.50;;;;;;5244693;28;20076;-26
2022/03/24 11:59:08;;;;;;;6.32;4.55;;;14.40;64.80;;;;;;5253824;28;20447;-26
2022/03/24 12:01:39;;;;;;;6.13;5.13;;;14.30;65.40;;;;;;5273450;28;20051;-27
2022/03/24 12:04:11;;;;;;;6.70;4.90;;;14.30;65.30;;;;;;5273012;28;20473;-27
2022/03/24 12:06:45;;;;;;;5.93;4.83;;;14.30;65.20;;;;;;5271760;28;20051;-27
2022/03/24 12:09:22;;;;;;;6.83;5.37;;;14.20;64.80;;;;;;5273194;28;20048;-29
2022/03/24 12:12:02;;;;;;;5.10;4.10;;;14.20;64.20;;;;;;5254904;28;20099;-29
2022/03/24 12:14:38;;;;;;;6.97;4.95;;;14.20;64.70;;;;;;5272502;28;20040;-30
2022/03/24 12:17:21;;;;;;;5.60;4.68;;;14.20;65.70;;;;;;5255064;28;20447;-26
2022/03/24 12:19:54;;;;;;;;;;;14.20;65.50;;;;;;5273020;28;20093;-26
2022/03/24 12:22:32;;;;;;;5.73;4.30;;;14.20;65.10;;;;;;5272344;28;19966;-26
2022/03/24 12:25:08;;;;;;;5.73;4.83;;;14.20;64.90;;;;;;5273330;28;20044;-26
2022/03/24 12:27:58;;;;;;;6.13;4.70;;;14.20;66.90;;;;;;5272492;28;20117;-26
2022/03/24 12:30:53;;;;;;;6.67;4.90;;;14.20;65.40;;;;;;5272734;28;20132;-26
2022/03/24 12:33:39;;;;;;;6.37;5.07;;;14.20;65.30;;;;;;5258299;28;20411;-28
2022/03/24 12:36:14;;;;;;;5.97;4.70;;;14.20;65.60;;;;;;5272135;28;20052;-28
2022/03/24 12:38:54;;;;;;;6.00;4.87;;;14.20;66.50;;;;;;5272533;28;20393;-30
2022/03/24 12:41:35;;;;;;;5.17;4.40;;;14.20;65.80;;;;;;5191517;28;20059;-29
2022/03/24 12:44:06;;;;;;;7.10;4.80;;;14.20;67.40;;;;;;5207593;28;20049;-29
2022/03/24 12:46:43;;;;;;;6.80;5.57;;;14.10;67.00;;;;;;5207510;28;20056;-30
2022/03/24 12:49:15;;;;;;;7.00;4.97;;;14.10;65.20;;;;;;5206978;28;20046;-29
2022/03/24 12:52:06;;;;;;;6.80;5.13;;;14.10;66.30;;;;;;5207436;28;20065;-29
2022/03/24 12:54:50;;;;;;;6.53;5.20;;;14.10;65.40;;;;;;5193477;28;20164;-29
2022/03/24 12:57:23;;;;;;;6.90;5.27;;;14.00;65.10;;;;;;5175607;28;20518;-28
2022/03/24 13:00:00;;;;;;;5.40;4.60;;;14.10;65.10;;;;;;5190216;28;20130;-28
2022/03/24 13:02:42;;;;;;;6.53;5.13;;;14.00;66.20;;;;;;5207282;28;20067;-29
2022/03/24 13:05:13;;;;;;;6.23;4.37;;;14.00;66.20;;;;;;5154329;28;20111;-28
2022/03/24 13:07:53;;;;;;;4.73;3.57;;;14.00;66.70;;;;;;5154167;28;20069;-28
2022/03/24 13:10:25;;;;;;;5.87;4.20;;;14.00;66.70;;;;;;5145928;28;20150;-31
2022/03/24 13:13:00;;;;;;;6.18;4.43;;;14.00;65.60;;;;;;5146263;28;20129;-32